createdAt,value
2018-05-04T00:00:46.666Z,102194.19
2018-05-04T00:01:50.761Z,102191.92
2018-05-04T00:02:54.831Z,102191.34
2018-05-04T00:03:58.882Z,102182.52
2018-05-04T00:05:03.024Z,102186.60
2018-05-04T00:06:07.091Z,102188.97
2018-05-04T00:07:11.143Z,102187.88
2018-05-04T00:08:15.237Z,102192.13
2018-05-04T00:09:19.296Z,102188.75
2018-05-04T00:10:23.445Z,102191.54
2018-05-04T00:11:27.601Z,102197.13
2018-05-04T00:12:31.665Z,102197.75
2018-05-04T00:13:35.732Z,102195.06
2018-05-04T00:14:39.921Z,102201.44
2018-05-04T00:15:44.119Z,102197.52
2018-05-04T00:16:48.511Z,102199.50
2018-05-04T00:17:52.573Z,102199.30
2018-05-04T00:18:57.461Z,102202.89
2018-05-04T00:20:02.050Z,102204.45
2018-05-04T00:21:06.198Z,102199.14
2018-05-04T00:22:10.293Z,102200.47
2018-05-04T00:23:14.695Z,102195.45
2018-05-04T00:24:18.788Z,102194.08
2018-05-04T00:25:23.245Z,102193.56
2018-05-04T00:26:27.323Z,102196.08
2018-05-04T00:27:31.737Z,102195.64
2018-05-04T00:28:36.017Z,102197.41
2018-05-04T00:29:40.811Z,102196.97
2018-05-04T00:30:45.303Z,102196.73
2018-05-04T00:31:50.423Z,102200.27
2018-05-04T00:32:55.637Z,102195.00
2018-05-04T00:33:59.698Z,102194.98
2018-05-04T00:35:03.759Z,102199.27
2018-05-04T00:36:07.910Z,102193.45
2018-05-04T00:37:12.007Z,102197.81
2018-05-04T00:38:16.105Z,102196.42
2018-05-04T00:39:20.183Z,102195.10
2018-05-04T00:40:24.243Z,102199.48
2018-05-04T00:41:28.392Z,102200.25
2018-05-04T00:42:32.867Z,102205.02
2018-05-04T00:43:36.928Z,102207.77
2018-05-04T00:44:41.083Z,102208.95
2018-05-04T00:45:45.589Z,102207.48
2018-05-04T00:46:49.755Z,102208.14
2018-05-04T00:47:54.449Z,102211.06
2018-05-04T00:48:59.428Z,102208.63
2018-05-04T00:50:03.515Z,102211.29
2018-05-04T00:51:07.571Z,102204.58
2018-05-04T00:52:12.413Z,102217.76
2018-05-04T00:53:16.533Z,102206.51
2018-05-04T00:54:24.356Z,102209.47
2018-05-04T00:55:29.423Z,102211.58
2018-05-04T00:56:33.481Z,102218.83
2018-05-04T00:57:37.631Z,102226.28
2018-05-04T00:58:41.751Z,102217.95
2018-05-04T00:59:45.809Z,102220.34
2018-05-04T01:00:50.243Z,102220.37
2018-05-04T01:01:54.593Z,102220.67
2018-05-04T01:02:58.796Z,102223.70
2018-05-04T01:04:02.858Z,102215.04
2018-05-04T01:05:07.019Z,102217.81
2018-05-04T01:06:11.499Z,102207.23
2018-05-04T01:07:15.867Z,102220.68
2018-05-04T01:08:19.972Z,102214.03
2018-05-04T01:09:24.287Z,102217.52
2018-05-04T01:10:28.609Z,102215.28
2018-05-04T01:11:33.011Z,102211.62
2018-05-04T01:12:37.496Z,102216.87
2018-05-04T01:13:41.934Z,102215.50
2018-05-04T01:14:46.252Z,102218.12
2018-05-04T01:15:51.137Z,102220.41
2018-05-04T01:16:56.395Z,102223.08
2018-05-04T01:18:00.797Z,102221.58
2018-05-04T01:19:05.388Z,102217.36
2018-05-04T01:20:09.831Z,102219.44
2018-05-04T01:21:13.899Z,102221.72
2018-05-04T01:22:17.987Z,102226.37
2018-05-04T01:23:22.119Z,102226.36
2018-05-04T01:24:26.258Z,102227.88
2018-05-04T01:25:30.411Z,102225.45
2018-05-04T01:26:34.454Z,102224.34
2018-05-04T01:27:38.622Z,102227.91
2018-05-04T01:28:42.689Z,102233.94
2018-05-04T01:29:46.733Z,102234.86
2018-05-04T01:30:51.271Z,102238.70
2018-05-04T01:31:55.753Z,102241.34
2018-05-04T01:33:00.107Z,102239.20
2018-05-04T01:34:05.059Z,102230.99
2018-05-04T01:35:09.224Z,102242.20
2018-05-04T01:36:13.301Z,102245.09
2018-05-04T01:37:17.447Z,102247.19
2018-05-04T01:38:21.529Z,102242.29
2018-05-04T01:39:25.925Z,102244.52
2018-05-04T01:40:29.981Z,102252.29
2018-05-04T01:41:34.435Z,102243.78
2018-05-04T01:42:39.038Z,102241.02
2018-05-04T01:43:43.425Z,102248.45
2018-05-04T01:44:47.571Z,102244.40
2018-05-04T01:45:52.361Z,102241.30
2018-05-04T01:46:57.055Z,102253.48
2018-05-04T01:48:02.146Z,102248.48
2018-05-04T01:49:06.209Z,102252.33
2018-05-04T01:50:10.364Z,102252.33
2018-05-04T01:51:14.435Z,102255.68
2018-05-04T01:52:18.923Z,102251.55
2018-05-04T01:53:23.013Z,102252.76
2018-05-04T01:54:27.069Z,102250.92
2018-05-04T01:55:31.248Z,102250.42
2018-05-04T01:56:35.304Z,102256.13
2018-05-04T01:57:39.495Z,102253.00
2018-05-04T01:58:43.905Z,102256.38
2018-05-04T01:59:48.119Z,102258.00
2018-05-04T02:00:52.501Z,102260.15
2018-05-04T02:01:57.765Z,102264.16
2018-05-04T02:03:03.491Z,102263.28
2018-05-04T02:04:07.773Z,102264.25
2018-05-04T02:05:12.685Z,102265.45
2018-05-04T02:06:17.454Z,102259.72
2018-05-04T02:07:21.893Z,102255.70
2018-05-04T02:08:26.211Z,102253.66
2018-05-04T02:09:30.639Z,102257.26
2018-05-04T02:10:34.902Z,102258.58
2018-05-04T02:11:39.383Z,102251.52
2018-05-04T02:12:43.777Z,102255.86
2018-05-04T02:13:48.141Z,102259.00
2018-05-04T02:14:52.676Z,102257.13
2018-05-04T02:15:58.109Z,102260.42
2018-05-04T02:17:02.169Z,102262.08
2018-05-04T02:18:06.250Z,102264.44
2018-05-04T02:19:10.355Z,102260.67
2018-05-04T02:20:14.541Z,102252.77
2018-05-04T02:21:18.584Z,102251.86
2018-05-04T02:22:22.659Z,102257.52
2018-05-04T02:23:27.050Z,102261.19
2018-05-04T02:24:31.193Z,102263.09
2018-05-04T02:25:35.263Z,102260.39
2018-05-04T02:26:39.392Z,102260.23
2018-05-04T02:27:43.506Z,102264.14
2018-05-04T02:28:47.549Z,102259.80
2018-05-04T02:29:51.898Z,102267.14
2018-05-04T02:30:55.936Z,102264.24
2018-05-04T02:32:00.901Z,102265.28
2018-05-04T02:33:04.977Z,102268.66
2018-05-04T02:34:09.037Z,102265.33
2018-05-04T02:35:13.193Z,102263.15
2018-05-04T02:36:17.578Z,102263.83
2018-05-04T02:37:21.636Z,102266.95
2018-05-04T02:38:25.761Z,102274.48
2018-05-04T02:39:29.886Z,102266.88
2018-05-04T02:40:33.947Z,102271.34
2018-05-04T02:41:38.019Z,102272.36
2018-05-04T02:42:42.090Z,102273.68
2018-05-04T02:43:46.239Z,102271.09
2018-05-04T02:44:50.348Z,102275.33
2018-05-04T02:45:55.701Z,102272.62
2018-05-04T02:47:00.396Z,102271.17
2018-05-04T02:48:04.459Z,102267.73
2018-05-04T02:49:08.862Z,102274.43
2018-05-04T02:50:13.490Z,102268.89
2018-05-04T02:51:17.768Z,102280.59
2018-05-04T02:52:22.102Z,102280.53
2018-05-04T02:53:26.582Z,102283.52
2018-05-04T02:54:30.705Z,102279.56
2018-05-04T02:55:35.027Z,102270.59
2018-05-04T02:56:39.310Z,102280.72
2018-05-04T02:57:43.731Z,102281.71
2018-05-04T02:58:48.118Z,102277.77
2018-05-04T02:59:52.954Z,102274.25
2018-05-04T03:00:57.490Z,102275.37
2018-05-04T03:02:02.587Z,102272.09
2018-05-04T03:03:07.105Z,102276.98
2018-05-04T03:04:11.418Z,102281.19
2018-05-04T03:05:16.002Z,102284.83
2018-05-04T03:06:20.641Z,102281.74
2018-05-04T03:07:24.695Z,102287.71
2018-05-04T03:08:28.888Z,102283.51
2018-05-04T03:09:32.972Z,102287.34
2018-05-04T03:10:37.118Z,102284.83
2018-05-04T03:11:41.181Z,102291.72
2018-05-04T03:12:45.224Z,102285.59
2018-05-04T03:13:49.358Z,102287.41
2018-05-04T03:14:53.408Z,102289.03
2018-05-04T03:15:58.075Z,102288.78
2018-05-04T03:17:03.380Z,102293.71
2018-05-04T03:18:08.179Z,102289.99
2018-05-04T03:19:12.633Z,102289.25
2018-05-04T03:20:16.666Z,102287.58
2018-05-04T03:21:20.790Z,102289.65
2018-05-04T03:22:24.913Z,102293.58
2018-05-04T03:23:29.150Z,102288.30
2018-05-04T03:24:33.264Z,102289.27
2018-05-04T03:25:37.624Z,102292.86
2018-05-04T03:26:41.708Z,102287.07
2018-05-04T03:27:45.838Z,102295.67
2018-05-04T03:28:49.910Z,102297.77
2018-05-04T03:29:53.998Z,102295.61
2018-05-04T03:30:58.302Z,102291.67
2018-05-04T03:32:02.948Z,102294.66
2018-05-04T03:33:07.099Z,102294.08
2018-05-04T03:34:11.157Z,102293.31
2018-05-04T03:35:15.498Z,102291.72
2018-05-04T03:36:20.037Z,102292.74
2018-05-04T03:37:24.166Z,102290.05
2018-05-04T03:38:28.951Z,102292.44
2018-05-04T03:39:33.102Z,102286.63
2018-05-04T03:40:37.184Z,102287.87
2018-05-04T03:41:41.677Z,102294.00
2018-05-04T03:42:46.008Z,102288.94
2018-05-04T03:43:50.788Z,102287.14
2018-05-04T03:44:54.893Z,102284.63
2018-05-04T03:45:59.305Z,102278.61
2018-05-04T03:47:03.456Z,102289.23
2018-05-04T03:48:08.357Z,102278.22
2018-05-04T03:49:13.079Z,102282.16
2018-05-04T03:50:18.159Z,102285.20
2018-05-04T03:51:22.235Z,102284.64
2018-05-04T03:52:26.455Z,102284.07
2018-05-04T03:53:30.671Z,102289.34
2018-05-04T03:54:34.763Z,102286.37
2018-05-04T03:55:39.221Z,102286.68
2018-05-04T03:56:43.315Z,102288.06
2018-05-04T03:57:58.053Z,102288.50
2018-05-04T04:04:23.554Z,102293.42
2018-05-04T04:05:27.722Z,102297.41
2018-05-04T04:06:31.825Z,102300.34
2018-05-04T04:07:35.946Z,102299.30
2018-05-04T04:08:40.354Z,102300.10
2018-05-04T04:09:44.415Z,102300.50
2018-05-04T04:10:48.539Z,102292.82
2018-05-04T04:11:52.708Z,102299.30
2018-05-04T04:12:56.885Z,102301.92
2018-05-04T04:14:00.952Z,102300.36
2018-05-04T04:15:07.358Z,102300.94
2018-05-04T04:16:11.826Z,102303.39
2018-05-04T04:17:15.925Z,102304.77
2018-05-04T04:18:19.991Z,102304.31
2018-05-04T04:19:24.052Z,102309.94
2018-05-04T04:20:28.539Z,102313.84
2018-05-04T04:21:32.712Z,102306.40
2018-05-04T04:22:36.795Z,102310.59
2018-05-04T04:23:40.851Z,102310.42
2018-05-04T04:24:44.937Z,102310.03
2018-05-04T04:25:49.058Z,102312.61
2018-05-04T04:26:53.538Z,102319.06
2018-05-04T04:27:57.619Z,102323.12
2018-05-04T04:29:02.214Z,102317.48
2018-05-04T04:30:07.107Z,102316.30
2018-05-04T04:31:11.386Z,102318.53
2018-05-04T04:32:15.737Z,102320.50
2018-05-04T04:33:20.139Z,102321.37
2018-05-04T04:34:24.213Z,102323.52
2018-05-04T04:35:28.312Z,102323.03
2018-05-04T04:36:32.616Z,102326.03
2018-05-04T04:37:36.720Z,102332.34
2018-05-04T04:38:40.845Z,102327.75
2018-05-04T04:39:44.966Z,102334.95
2018-05-04T04:40:49.039Z,102331.18
2018-05-04T04:41:53.136Z,102332.95
2018-05-04T04:42:57.235Z,102332.66
2018-05-04T04:44:01.412Z,102334.90
2018-05-04T04:45:06.920Z,102330.30
2018-05-04T04:46:12.517Z,102337.81
2018-05-04T04:47:16.692Z,102335.30
2018-05-04T04:48:20.766Z,102337.78
2018-05-04T04:49:24.920Z,102333.38
2018-05-04T04:50:29.016Z,102339.05
2018-05-04T04:51:33.114Z,102340.40
2018-05-04T04:52:37.659Z,102343.97
2018-05-04T04:53:41.746Z,102348.02
2018-05-04T04:54:45.800Z,102349.62
2018-05-04T04:55:49.890Z,102350.30
2018-05-04T04:56:53.998Z,102353.31
2018-05-04T04:57:58.377Z,102359.80
2018-05-04T04:59:02.436Z,102348.36
2018-05-04T05:00:08.232Z,102347.03
2018-05-04T05:01:12.697Z,102351.06
2018-05-04T05:02:16.808Z,102343.44
2018-05-04T05:03:20.879Z,102340.94
2018-05-04T05:04:24.960Z,102337.56
2018-05-04T05:05:29.042Z,102330.19
2018-05-04T05:06:33.102Z,102338.78
2018-05-04T05:07:37.320Z,102334.86
2018-05-04T05:08:41.438Z,102337.06
2018-05-04T05:09:45.575Z,102341.48
2018-05-04T05:10:49.988Z,102338.83
2018-05-04T05:11:54.043Z,102346.94
2018-05-04T05:12:58.116Z,102336.78
2018-05-04T05:14:02.208Z,102340.83
2018-05-04T05:15:06.854Z,102344.81
2018-05-04T05:16:11.444Z,102347.91
2018-05-04T05:17:15.812Z,102353.59
2018-05-04T05:18:19.871Z,102356.13
2018-05-04T05:19:23.961Z,102350.26
2018-05-04T05:20:28.062Z,102353.34
2018-05-04T05:21:32.164Z,102355.48
2018-05-04T05:22:36.288Z,102352.81
2018-05-04T05:23:40.476Z,102358.23
2018-05-04T05:24:44.590Z,102361.07
2018-05-04T05:25:48.695Z,102360.62
2018-05-04T05:26:52.742Z,102366.39
2018-05-04T05:27:57.220Z,102363.38
2018-05-04T05:29:01.290Z,102364.36
2018-05-04T05:30:06.436Z,102359.95
2018-05-04T05:31:10.517Z,102360.84
2018-05-04T05:32:14.622Z,102357.62
2018-05-04T05:33:19.322Z,102363.75
2018-05-04T05:34:23.882Z,102363.02
2018-05-04T05:35:28.066Z,102351.48
2018-05-04T05:36:32.148Z,102351.11
2018-05-04T05:37:36.409Z,102352.13
2018-05-04T05:38:40.493Z,102350.48
2018-05-04T05:39:44.555Z,102353.67
2018-05-04T05:40:48.660Z,102347.94
2018-05-04T05:41:52.795Z,102346.27
2018-05-04T05:42:56.912Z,102339.02
2018-05-04T05:44:01.008Z,102341.59
2018-05-04T05:45:07.586Z,102342.42
2018-05-04T05:46:12.293Z,102342.63
2018-05-04T05:47:16.424Z,102343.32
2018-05-04T05:48:21.716Z,102348.19
2018-05-04T05:49:25.814Z,102342.34
2018-05-04T05:50:29.976Z,102345.71
2018-05-04T05:51:34.234Z,102349.25
2018-05-04T05:52:38.454Z,102350.20
2018-05-04T05:53:42.522Z,102351.32
2018-05-04T05:54:46.587Z,102344.42
2018-05-04T05:55:50.681Z,102344.66
2018-05-04T05:56:54.801Z,102340.51
2018-05-04T05:57:58.981Z,102344.95
2018-05-04T05:59:03.381Z,102341.02
2018-05-04T06:00:07.532Z,102345.93
2018-05-04T06:01:12.129Z,102346.94
2018-05-04T06:02:16.511Z,102347.05
2018-05-04T06:03:20.673Z,102336.38
2018-05-04T06:04:25.076Z,102341.81
2018-05-04T06:05:29.232Z,102340.27
2018-05-04T06:06:33.314Z,102344.49
2018-05-04T06:07:37.441Z,102344.72
2018-05-04T06:08:41.509Z,102350.48
2018-05-04T06:09:45.671Z,102344.32
2018-05-04T06:10:50.136Z,102347.05
2018-05-04T06:11:54.265Z,102349.11
2018-05-04T06:12:58.425Z,102337.80
2018-05-04T06:14:02.581Z,102345.95
2018-05-04T06:15:06.676Z,102346.59
2018-05-04T06:16:11.716Z,102346.34
2018-05-04T06:17:15.797Z,102342.24
2018-05-04T06:18:19.882Z,102343.14
2018-05-04T06:19:23.982Z,102341.57
2018-05-04T06:20:28.048Z,102331.98
2018-05-04T06:21:32.280Z,102332.30
2018-05-04T06:22:36.746Z,102333.88
2018-05-04T06:23:40.850Z,102336.62
2018-05-04T06:24:44.965Z,102340.48
2018-05-04T06:25:49.122Z,102344.31
2018-05-04T06:26:53.254Z,102341.27
2018-05-04T06:27:57.329Z,102342.91
2018-05-04T06:29:01.423Z,102343.39
2018-05-04T06:30:07.036Z,102341.84
2018-05-04T06:31:12.478Z,102348.36
2018-05-04T06:32:17.115Z,102343.08
2018-05-04T06:33:21.197Z,102345.31
2018-05-04T06:34:25.392Z,102348.63
2018-05-04T06:35:29.777Z,102343.88
2018-05-04T06:36:33.994Z,102342.23
2018-05-04T06:37:38.095Z,102335.30
2018-05-04T06:38:42.349Z,102340.17
2018-05-04T06:39:46.486Z,102340.25
2018-05-04T06:40:50.597Z,102339.56
2018-05-04T06:41:54.664Z,102338.91
2018-05-04T06:42:58.735Z,102345.31
2018-05-04T06:44:02.849Z,102341.61
2018-05-04T06:45:07.409Z,102338.86
2018-05-04T06:46:12.578Z,102345.19
2018-05-04T06:47:16.984Z,102352.72
2018-05-04T06:48:21.077Z,102348.24
2018-05-04T06:49:25.147Z,102346.00
2018-05-04T06:50:29.345Z,102351.94
2018-05-04T06:51:33.406Z,102345.11
2018-05-04T06:52:37.477Z,102348.73
2018-05-04T06:53:42.047Z,102347.22
2018-05-04T06:54:46.250Z,102344.24
2018-05-04T06:55:50.368Z,102342.80
2018-05-04T06:56:54.523Z,102348.08
2018-05-04T06:57:58.635Z,102344.70
2018-05-04T06:59:02.710Z,102350.50
2018-05-04T07:00:07.895Z,102347.84
2018-05-04T07:01:12.400Z,102351.25
2018-05-04T07:02:16.686Z,102351.45
2018-05-04T07:03:20.748Z,102351.31
2018-05-04T07:04:24.829Z,102349.03
2018-05-04T07:05:29.012Z,102348.32
2018-05-04T07:06:33.430Z,102355.20
2018-05-04T07:07:37.590Z,102347.97
2018-05-04T07:08:41.673Z,102351.16
2018-05-04T07:09:45.829Z,102347.79
2018-05-04T07:10:50.032Z,102352.03
2018-05-04T07:11:54.214Z,102349.50
2018-05-04T07:12:58.302Z,102346.31
2018-05-04T07:14:02.394Z,102351.72
2018-05-04T07:15:06.712Z,102353.72
2018-05-04T07:16:11.397Z,102349.96
2018-05-04T07:17:16.550Z,102349.83
2018-05-04T07:18:21.162Z,102344.95
2018-05-04T07:19:25.241Z,102339.02
2018-05-04T07:20:29.387Z,102345.52
2018-05-04T07:21:33.492Z,102342.81
2018-05-04T07:22:37.563Z,102342.02
2018-05-04T07:23:41.650Z,102344.57
2018-05-04T07:24:46.126Z,102341.95
2018-05-04T07:25:50.334Z,102342.17
2018-05-04T07:26:54.525Z,102345.00
2018-05-04T07:27:58.644Z,102342.48
2018-05-04T07:29:02.785Z,102339.63
2018-05-04T07:30:07.264Z,102351.28
2018-05-04T07:31:11.646Z,102345.55
2018-05-04T07:32:15.765Z,102350.88
2018-05-04T07:33:19.860Z,102341.77
2018-05-04T07:34:24.022Z,102344.01
2018-05-04T07:35:28.150Z,102339.98
2018-05-04T07:36:32.232Z,102346.95
2018-05-04T07:37:36.297Z,102344.64
2018-05-04T07:38:40.445Z,102346.96
2018-05-04T07:39:44.640Z,102352.52
2018-05-04T07:40:48.887Z,102351.97
2018-05-04T07:41:53.062Z,102355.95
2018-05-04T07:42:57.165Z,102352.78
2018-05-04T07:44:01.740Z,102348.85
2018-05-04T07:45:06.800Z,102351.34
2018-05-04T07:46:11.372Z,102349.95
2018-05-04T07:47:15.601Z,102351.77
2018-05-04T07:49:35.762Z,102354.81
2018-05-04T07:50:40.169Z,102354.55
2018-05-04T07:51:44.269Z,102352.50
2018-05-04T07:52:48.431Z,102359.02
2018-05-04T07:53:55.573Z,102358.36
2018-05-04T07:54:59.794Z,102362.07
2018-05-04T07:56:03.967Z,102359.73
2018-05-04T07:57:08.369Z,102356.09
2018-05-04T07:58:12.472Z,102365.06
2018-05-04T07:59:16.630Z,102365.51
2018-05-04T08:00:21.078Z,102359.19
2018-05-04T08:01:25.212Z,102355.44
2018-05-04T08:02:30.244Z,102355.87
2018-05-04T08:03:34.626Z,102354.52
2018-05-04T08:04:38.835Z,102361.14
2018-05-04T08:05:42.948Z,102357.77
2018-05-04T08:06:47.056Z,102364.02
2018-05-04T08:07:51.133Z,102361.75
2018-05-04T08:08:55.276Z,102357.67
2018-05-04T08:09:59.513Z,102358.15
2018-05-04T08:11:03.625Z,102360.63
2018-05-04T08:12:07.871Z,102357.48
2018-05-04T08:13:11.941Z,102358.86
2018-05-04T08:14:16.075Z,102359.07
2018-05-04T08:15:20.907Z,102363.88
2018-05-04T08:16:25.493Z,102377.66
2018-05-04T08:17:30.520Z,102380.41
2018-05-04T08:18:34.663Z,102378.08
2018-05-04T08:19:38.790Z,102376.94
2018-05-04T08:20:42.905Z,102375.14
2018-05-04T08:21:47.448Z,102384.35
2018-05-04T08:22:51.626Z,102380.03
2018-05-04T08:23:55.837Z,102372.55
2018-05-04T08:24:59.950Z,102375.23
2018-05-04T08:26:04.086Z,102373.84
2018-05-04T08:27:08.268Z,102377.27
2018-05-04T08:28:12.709Z,102376.87
2018-05-04T08:29:16.810Z,102376.64
2018-05-04T08:30:21.391Z,102378.73
2018-05-04T08:31:25.477Z,102383.33
2018-05-04T08:32:29.579Z,102373.88
2018-05-04T08:33:33.650Z,102376.81
2018-05-04T08:34:37.731Z,102375.00
2018-05-04T08:35:41.819Z,102377.91
2018-05-04T08:36:46.008Z,102383.31
2018-05-04T08:37:50.171Z,102382.22
2018-05-04T08:38:54.255Z,102376.20
2018-05-04T08:39:58.336Z,102379.84
2018-05-04T08:41:02.881Z,102381.87
2018-05-04T08:42:07.093Z,102384.79
2018-05-04T08:43:11.305Z,102385.77
2018-05-04T08:44:15.322Z,102383.36
2018-05-04T08:45:19.413Z,102381.34
2018-05-04T08:46:24.250Z,102383.94
2018-05-04T08:47:29.615Z,102381.49
2018-05-04T08:48:33.841Z,102373.41
2018-05-04T08:49:37.941Z,102376.66
2018-05-04T08:50:42.009Z,102380.21
2018-05-04T08:51:46.155Z,102374.61
2018-05-04T08:52:50.265Z,102372.82
2018-05-04T08:53:54.340Z,102376.42
2018-05-04T08:54:58.413Z,102372.63
2018-05-04T08:56:02.604Z,102378.78
2018-05-04T08:57:06.902Z,102374.44
2018-05-04T08:58:11.029Z,102376.73
2018-05-04T08:59:15.135Z,102373.30
2018-05-04T09:00:19.262Z,102374.05
2018-05-04T09:01:23.425Z,102376.56
2018-05-04T09:02:27.510Z,102369.59
2018-05-04T09:03:31.579Z,102376.38
2018-05-04T09:04:35.665Z,102375.45
2018-05-04T09:05:40.256Z,102376.74
2018-05-04T09:06:44.265Z,102379.70
2018-05-04T09:07:48.367Z,102379.45
2018-05-04T09:08:52.456Z,102375.89
2018-05-04T09:09:56.560Z,102380.00
2018-05-04T09:11:00.640Z,102381.27
2018-05-04T09:12:05.339Z,102378.73
2018-05-04T09:13:09.477Z,102374.74
2018-05-04T09:14:13.577Z,102375.70
2018-05-04T09:15:17.700Z,102371.89
2018-05-04T09:16:21.819Z,102369.44
2018-05-04T09:17:25.871Z,102369.73
2018-05-04T09:18:30.304Z,102369.69
2018-05-04T09:19:34.391Z,102368.27
2018-05-04T09:20:38.456Z,102364.48
2018-05-04T09:21:42.579Z,102369.92
2018-05-04T09:22:46.762Z,102367.52
2018-05-04T09:23:50.851Z,102365.75
2018-05-04T09:24:54.913Z,102371.80
2018-05-04T09:25:59.055Z,102369.26
2018-05-04T09:27:03.318Z,102363.94
2018-05-04T09:28:07.501Z,102365.87
2018-05-04T09:29:11.630Z,102369.36
2018-05-04T09:30:16.140Z,102375.11
2018-05-04T09:31:20.652Z,102371.05
2018-05-04T09:32:25.103Z,102375.83
2018-05-04T09:33:29.207Z,102369.58
2018-05-04T09:34:33.737Z,102374.00
2018-05-04T09:35:38.520Z,102367.42
2018-05-04T09:36:43.376Z,102369.08
2018-05-04T09:37:47.454Z,102369.74
2018-05-04T09:38:51.528Z,102367.28
2018-05-04T09:39:55.611Z,102369.56
2018-05-04T09:40:59.987Z,102374.44
2018-05-04T09:42:04.277Z,102376.72
2018-05-04T09:43:08.426Z,102375.95
2018-05-04T09:44:12.583Z,102376.30
2018-05-04T09:45:16.954Z,102374.55
2018-05-04T09:46:21.068Z,102379.86
2018-05-04T09:47:25.487Z,102378.14
2018-05-04T09:48:30.364Z,102375.09
2018-05-04T09:49:34.568Z,102379.98
2018-05-04T09:50:38.684Z,102384.05
2018-05-04T09:51:42.780Z,102381.63
2018-05-04T09:52:46.873Z,102383.73
2018-05-04T09:53:51.258Z,102386.66
2018-05-04T09:54:55.321Z,102375.59
2018-05-04T09:55:59.516Z,102376.58
2018-05-04T09:57:03.756Z,102379.06
2018-05-04T09:58:08.042Z,102380.00
2018-05-04T09:59:12.129Z,102381.81
2018-05-04T10:00:16.678Z,102379.20
2018-05-04T10:01:20.842Z,102379.20
2018-05-04T10:02:24.982Z,102376.42
2018-05-04T10:03:30.066Z,102375.09
2018-05-04T10:04:34.118Z,102381.41
2018-05-04T10:05:38.222Z,102380.53
2018-05-04T10:06:42.876Z,102383.00
2018-05-04T10:07:46.922Z,102387.30
2018-05-04T10:08:51.136Z,102388.16
2018-05-04T10:09:55.367Z,102381.82
2018-05-04T10:10:59.664Z,102387.53
2018-05-04T10:12:03.945Z,102381.36
2018-05-04T10:13:08.491Z,102385.75
2018-05-04T10:14:12.628Z,102387.70
2018-05-04T10:15:16.752Z,102391.11
2018-05-04T10:16:20.812Z,102386.05
2018-05-04T10:17:24.882Z,102391.27
2018-05-04T10:18:29.375Z,102393.94
2018-05-04T10:19:33.446Z,102386.91
2018-05-04T10:20:37.520Z,102389.70
2018-05-04T10:21:41.690Z,102387.52
2018-05-04T10:22:45.850Z,102392.12
2018-05-04T10:23:49.952Z,102398.78
2018-05-04T10:24:54.359Z,102387.06
2018-05-04T10:25:58.459Z,102384.77
2018-05-04T10:27:02.698Z,102384.22
2018-05-04T10:28:07.000Z,102379.03
2018-05-04T10:29:11.206Z,102378.72
2018-05-04T10:30:17.270Z,102382.30
2018-05-04T10:31:21.411Z,102374.98
2018-05-04T10:32:25.578Z,102373.76
2018-05-04T10:33:29.823Z,102374.56
2018-05-04T10:34:33.988Z,102371.05
2018-05-04T10:35:38.177Z,102368.25
2018-05-04T10:36:42.601Z,102363.80
2018-05-04T10:37:46.703Z,102362.32
2018-05-04T10:38:50.993Z,102365.77
2018-05-04T10:39:55.067Z,102370.18
2018-05-04T10:40:59.221Z,102367.66
2018-05-04T10:42:03.425Z,102375.09
2018-05-04T10:43:08.477Z,102373.16
2018-05-04T10:44:12.633Z,102369.03
2018-05-04T10:45:17.070Z,102370.92
2018-05-04T10:46:21.214Z,102371.05
2018-05-04T10:47:25.319Z,102373.59
2018-05-04T10:48:29.446Z,102370.84
2018-05-04T10:49:34.251Z,102363.68
2018-05-04T10:50:38.354Z,102364.19
2018-05-04T10:51:43.318Z,102365.36
2018-05-04T10:52:47.409Z,102368.69
2018-05-04T10:53:51.514Z,102365.48
2018-05-04T10:54:55.673Z,102365.92
2018-05-04T10:55:59.863Z,102361.73
2018-05-04T10:57:04.178Z,102358.34
2018-05-04T10:58:08.602Z,102362.54
2018-05-04T10:59:12.669Z,102361.88
2018-05-04T11:00:17.487Z,102365.63
2018-05-04T11:01:21.560Z,102370.34
2018-05-04T11:02:25.730Z,102360.30
2018-05-04T11:03:29.915Z,102362.11
2018-05-04T11:04:34.017Z,102363.47
2018-05-04T11:05:38.425Z,102355.67
2018-05-04T11:06:43.444Z,102362.13
2018-05-04T11:07:47.598Z,102358.09
2018-05-04T11:08:51.705Z,102359.13
2018-05-04T11:09:55.869Z,102354.66
2018-05-04T11:10:59.972Z,102357.48
2018-05-04T11:12:04.553Z,102358.02
2018-05-04T11:13:09.072Z,102354.00
2018-05-04T11:14:13.184Z,102353.13
2018-05-04T11:15:17.746Z,102359.98
2018-05-04T11:16:21.805Z,102354.08
2018-05-04T11:17:25.896Z,102354.15
2018-05-04T11:18:30.329Z,102364.52
2018-05-04T11:19:34.413Z,102368.03
2018-05-04T11:20:38.632Z,102351.95
2018-05-04T11:21:43.366Z,102352.22
2018-05-04T11:22:47.448Z,102353.84
2018-05-04T11:23:51.517Z,102359.20
2018-05-04T11:24:55.985Z,102355.69
2018-05-04T11:26:00.156Z,102362.14
2018-05-04T11:27:04.301Z,102357.59
2018-05-04T11:28:08.356Z,102363.80
2018-05-04T11:29:12.846Z,102372.06
2018-05-04T11:30:17.383Z,102361.25
2018-05-04T11:31:21.443Z,102364.81
2018-05-04T11:32:25.541Z,102361.75
2018-05-04T11:33:29.712Z,102360.38
2018-05-04T11:34:33.999Z,102366.64
2018-05-04T11:35:39.185Z,102365.55
2018-05-04T11:36:43.535Z,102367.93
2018-05-04T11:37:48.635Z,102366.16
2018-05-04T11:38:52.790Z,102370.05
2018-05-04T11:39:56.867Z,102364.31
2018-05-04T11:41:01.053Z,102360.50
2018-05-04T11:42:05.525Z,102367.84
2018-05-04T11:43:09.683Z,102360.17
2018-05-04T11:44:14.050Z,102364.81
2018-05-04T11:45:18.506Z,102359.77
2018-05-04T11:46:22.583Z,102361.86
2018-05-04T11:47:26.778Z,102359.41
2018-05-04T11:48:31.201Z,102354.16
2018-05-04T11:49:35.413Z,102362.48
2018-05-04T11:50:39.546Z,102358.86
2018-05-04T11:51:43.638Z,102353.70
2018-05-04T11:52:47.783Z,102359.33
2018-05-04T11:53:51.864Z,102362.77
2018-05-04T11:54:56.396Z,102364.20
2018-05-04T11:56:00.475Z,102354.63
2018-05-04T11:57:04.670Z,102357.56
2018-05-04T11:58:08.824Z,102352.09
2018-05-04T11:59:14.263Z,102359.70
2018-05-04T12:00:18.711Z,102358.99
2018-05-04T12:01:22.798Z,102359.09
2018-05-04T12:02:27.081Z,102356.35
2018-05-04T12:03:31.227Z,102364.27
2018-05-04T12:04:35.463Z,102359.80
2018-05-04T12:05:40.375Z,102361.16
2018-05-04T12:06:44.805Z,102360.22
2018-05-04T12:07:49.313Z,102356.91
2018-05-04T12:08:53.381Z,102356.50
2018-05-04T12:09:57.470Z,102356.05
2018-05-04T12:11:01.582Z,102348.61
2018-05-04T12:12:05.661Z,102355.08
2018-05-04T12:13:10.092Z,102357.29
2018-05-04T12:14:14.725Z,102354.64
2018-05-04T12:15:19.161Z,102354.35
2018-05-04T12:16:23.249Z,102357.02
2018-05-04T12:17:27.455Z,102352.86
2018-05-04T12:18:31.571Z,102360.96
2018-05-04T12:19:35.682Z,102360.08
2018-05-04T12:20:39.831Z,102358.83